sensor_id;sensor_type;location;lat;lon;timestamp;temperature;humidity
29007;DHT22;16104;48.642;9.008;2022-08-03T01:00:23;22.90;52.20
29007;DHT22;16104;48.642;9.008;2022-08-03T01:05:22;22.80;52.60
29007;DHT22;16104;48.642;9.008;2022-08-03T02:01:10;22.30;53.80
29007;DHT22;16104;48.642;9.008;2022-08-03T02:06:09;22.20;54.00
29007;DHT22;16104;48.642;9.008;2022-08-03T02:11:06;22.10;54.10
29007;DHT22;16104;48.642;9.008;2022-08-03T03:01:50;21.70;54.20
29007;DHT22;16104;48.642;9.008;2022-08-03T03:06:49;21.70;54.30
29007;DHT22;16104;48.642;9.008;2022-08-03T03:11:45;21.70;54.30
29007;DHT22;16104;48.642;9.008;2022-08-03T03:16:44;21.60;54.50
29007;DHT22;16104;48.642;9.008;2022-08-03T03:21:42;21.50;54.50
29007;DHT22;16104;48.642;9.008;2022-08-03T03:26:38;21.50;54.70
29007;DHT22;16104;48.642;9.008;2022-08-03T03:31:34;21.50;54.70
29007;DHT22;16104;48.642;9.008;2022-08-03T03:36:30;21.40;54.60
29007;DHT22;16104;48.642;9.008;2022-08-03T03:41:26;21.40;54.60
29007;DHT22;16104;48.642;9.008;2022-08-03T03:46:21;21.40;54.60
29007;DHT22;16104;48.642;9.008;2022-08-03T03:51:17;21.40;54.70
29007;DHT22;16104;48.642;9.008;2022-08-03T03:56:13;21.30;54.80
29007;DHT22;16104;48.642;9.008;2022-08-03T04:01:08;21.30;54.70
29007;DHT22;16104;48.642;9.008;2022-08-03T04:06:04;21.30;54.70
29007;DHT22;16104;48.642;9.008;2022-08-03T04:11:27;21.30;54.70
29007;DHT22;16104;48.642;9.008;2022-08-03T04:16:27;21.20;55.20
29007;DHT22;16104;48.642;9.008;2022-08-03T04:21:24;21.30;54.90
29007;DHT22;16104;48.642;9.008;2022-08-03T04:26:21;21.20;54.80
29007;DHT22;16104;48.642;9.008;2022-08-03T04:31:21;21.20;55.30
29007;DHT22;16104;48.642;9.008;2022-08-03T04:36:21;21.10;55.30
29007;DHT22;16104;48.642;9.008;2022-08-03T04:41:19;21.10;55.60
29007;DHT22;16104;48.642;9.008;2022-08-03T04:46:15;21.20;55.30
29007;DHT22;16104;48.642;9.008;2022-08-03T04:51:12;21.10;55.30
29007;DHT22;16104;48.642;9.008;2022-08-03T04:56:07;21.10;55.50
29007;DHT22;16104;48.642;9.008;2022-08-03T05:01:03;21.10;55.90
29007;DHT22;16104;48.642;9.008;2022-08-03T05:05:58;21.10;55.70
29007;DHT22;16104;48.642;9.008;2022-08-03T05:10:55;21.10;55.70
29007;DHT22;16104;48.642;9.008;2022-08-03T05:15:50;21.10;55.90
29007;DHT22;16104;48.642;9.008;2022-08-03T05:20:46;21.10;55.90
29007;DHT22;16104;48.642;9.008;2022-08-03T05:25:41;21.10;55.80
29007;DHT22;16104;48.642;9.008;2022-08-03T05:30:37;21.20;56.60
29007;DHT22;16104;48.642;9.008;2022-08-03T05:35:33;21.20;56.10
29007;DHT22;16104;48.642;9.008;2022-08-03T05:40:33;21.30;56.20
29007;DHT22;16104;48.642;9.008;2022-08-03T05:45:29;21.30;56.20
29007;DHT22;16104;48.642;9.008;2022-08-03T05:50:24;21.40;56.20
29007;DHT22;16104;48.642;9.008;2022-08-03T05:55:20;21.40;56.30
29007;DHT22;16104;48.642;9.008;2022-08-03T06:00:16;21.50;56.20
29007;DHT22;16104;48.642;9.008;2022-08-03T06:05:11;21.60;56.30
29007;DHT22;16104;48.642;9.008;2022-08-03T06:10:07;21.70;56.20
29007;DHT22;16104;48.642;9.008;2022-08-03T06:15:03;21.80;56.30
29007;DHT22;16104;48.642;9.008;2022-08-03T06:19:59;21.90;56.40
29007;DHT22;16104;48.642;9.008;2022-08-03T06:24:55;22.00;56.40
29007;DHT22;16104;48.642;9.008;2022-08-03T06:29:50;22.20;56.70
29007;DHT22;16104;48.642;9.008;2022-08-03T06:34:46;22.30;56.70
29007;DHT22;16104;48.642;9.008;2022-08-03T06:39:41;22.50;56.60
29007;DHT22;16104;48.642;9.008;2022-08-03T06:44:37;22.70;56.00
29007;DHT22;16104;48.642;9.008;2022-08-03T06:49:33;22.90;55.90
29007;DHT22;16104;48.642;9.008;2022-08-03T06:54:28;23.00;56.00
29007;DHT22;16104;48.642;9.008;2022-08-03T06:59:23;23.30;56.00
29007;DHT22;16104;48.642;9.008;2022-08-03T07:04:19;23.50;56.00
29007;DHT22;16104;48.642;9.008;2022-08-03T07:09:14;23.70;55.60
29007;DHT22;16104;48.642;9.008;2022-08-03T07:14:10;23.90;55.70
29007;DHT22;16104;48.642;9.008;2022-08-03T07:19:06;24.10;55.50
29007;DHT22;16104;48.642;9.008;2022-08-03T07:24:01;24.40;55.70
29007;DHT22;16104;48.642;9.008;2022-08-03T07:28:57;24.60;55.30
29007;DHT22;16104;48.642;9.008;2022-08-03T07:33:55;24.90;54.70
29007;DHT22;16104;48.642;9.008;2022-08-03T07:38:50;25.20;54.70
29007;DHT22;16104;48.642;9.008;2022-08-03T07:43:46;25.40;54.10
29007;DHT22;16104;48.642;9.008;2022-08-03T07:48:41;25.70;53.40
29007;DHT22;16104;48.642;9.008;2022-08-03T07:53:37;26.00;53.00
29007;DHT22;16104;48.642;9.008;2022-08-03T07:58:34;26.30;53.10
29007;DHT22;16104;48.642;9.008;2022-08-03T08:03:30;26.60;52.20
29007;DHT22;16104;48.642;9.008;2022-08-03T08:08:25;26.90;51.60
29007;DHT22;16104;48.642;9.008;2022-08-03T08:13:21;27.10;50.90
29007;DHT22;16104;48.642;9.008;2022-08-03T08:18:17;27.40;50.40
29007;DHT22;16104;48.642;9.008;2022-08-03T08:23:13;27.70;49.60
29007;DHT22;16104;48.642;9.008;2022-08-03T08:28:08;27.90;49.00
29007;DHT22;16104;48.642;9.008;2022-08-03T08:33:04;28.20;49.10
29007;DHT22;16104;48.642;9.008;2022-08-03T08:37:59;28.50;47.90
29007;DHT22;16104;48.642;9.008;2022-08-03T08:42:55;28.70;47.30
29007;DHT22;16104;48.642;9.008;2022-08-03T08:47:53;29.00;47.00
29007;DHT22;16104;48.642;9.008;2022-08-03T08:52:49;29.30;46.10
29007;DHT22;16104;48.642;9.008;2022-08-03T08:57:55;29.50;45.60
29007;DHT22;16104;48.642;9.008;2022-08-03T09:02:52;29.80;44.40
29007;DHT22;16104;48.642;9.008;2022-08-03T09:07:48;30.00;44.70
29007;DHT22;16104;48.642;9.008;2022-08-03T09:12:45;30.30;44.00
29007;DHT22;16104;48.642;9.008;2022-08-03T09:17:41;30.50;43.40
29007;DHT22;16104;48.642;9.008;2022-08-03T09:27:52;31.00;41.80
29007;DHT22;16104;48.642;9.008;2022-08-03T09:32:48;31.20;42.50
29007;DHT22;16104;48.642;9.008;2022-08-03T09:37:43;31.50;41.90
29007;DHT22;16104;48.642;9.008;2022-08-03T09:42:55;31.70;41.80
29007;DHT22;16104;48.642;9.008;2022-08-03T09:47:51;31.90;40.40
29007;DHT22;16104;48.642;9.008;2022-08-03T09:52:46;32.10;41.20
29007;DHT22;16104;48.642;9.008;2022-08-03T09:57:45;32.40;40.50
29007;DHT22;16104;48.642;9.008;2022-08-03T10:02:42;32.60;40.20
29007;DHT22;16104;48.642;9.008;2022-08-03T10:07:46;32.80;39.90
29007;DHT22;16104;48.642;9.008;2022-08-03T10:12:42;33.10;38.50
29007;DHT22;16104;48.642;9.008;2022-08-03T10:17:38;33.30;38.90
29007;DHT22;16104;48.642;9.008;2022-08-03T10:22:36;33.60;38.60
29007;DHT22;16104;48.642;9.008;2022-08-03T10:27:37;33.80;37.60
29007;DHT22;16104;48.642;9.008;2022-08-03T10:32:40;34.00;36.30
29007;DHT22;16104;48.642;9.008;2022-08-03T10:37:40;34.20;35.90
29007;DHT22;16104;48.642;9.008;2022-08-03T10:42:37;34.40;36.50
29007;DHT22;16104;48.642;9.008;2022-08-03T10:47:34;34.60;36.50
29007;DHT22;16104;48.642;9.008;2022-08-03T10:52:31;34.80;35.70
29007;DHT22;16104;48.642;9.008;2022-08-03T10:57:47;35.00;35.60
29007;DHT22;16104;48.642;9.008;2022-08-03T11:03:12;35.10;34.90
29007;DHT22;16104;48.642;9.008;2022-08-03T11:13:21;35.50;34.00
29007;DHT22;16104;48.642;9.008;2022-08-03T11:18:17;35.70;33.80
29007;DHT22;16104;48.642;9.008;2022-08-03T11:23:14;35.90;33.40
29007;DHT22;16104;48.642;9.008;2022-08-03T11:28:27;36.10;32.20
29007;DHT22;16104;48.642;9.008;2022-08-03T11:33:30;36.20;32.40
29007;DHT22;16104;48.642;9.008;2022-08-03T11:38:25;36.40;32.20
29007;DHT22;16104;48.642;9.008;2022-08-03T11:48:16;36.80;31.70
29007;DHT22;16104;48.642;9.008;2022-08-03T11:53:17;36.90;30.60
29007;DHT22;16104;48.642;9.008;2022-08-03T11:58:17;37.10;30.60
29007;DHT22;16104;48.642;9.008;2022-08-03T12:03:15;37.30;30.50
29007;DHT22;16104;48.642;9.008;2022-08-03T12:08:13;37.50;31.70
29007;DHT22;16104;48.642;9.008;2022-08-03T12:13:08;37.80;30.50
29007;DHT22;16104;48.642;9.008;2022-08-03T12:18:13;38.00;30.80
29007;DHT22;16104;48.642;9.008;2022-08-03T12:23:09;38.30;29.10
29007;DHT22;16104;48.642;9.008;2022-08-03T12:33:23;38.80;29.40
29007;DHT22;16104;48.642;9.008;2022-08-03T12:38:20;39.00;28.80
29007;DHT22;16104;48.642;9.008;2022-08-03T12:43:16;39.20;28.70
29007;DHT22;16104;48.642;9.008;2022-08-03T12:48:12;39.40;28.30
29007;DHT22;16104;48.642;9.008;2022-08-03T12:53:08;39.50;27.80
29007;DHT22;16104;48.642;9.008;2022-08-03T12:58:06;39.70;27.60
29007;DHT22;16104;48.642;9.008;2022-08-03T13:03:06;39.80;27.70
29007;DHT22;16104;48.642;9.008;2022-08-03T13:08:02;39.90;27.10
29007;DHT22;16104;48.642;9.008;2022-08-03T13:12:58;40.00;26.70
29007;DHT22;16104;48.642;9.008;2022-08-03T13:17:55;40.20;26.50
29007;DHT22;16104;48.642;9.008;2022-08-03T13:22:50;40.40;26.40
29007;DHT22;16104;48.642;9.008;2022-08-03T13:27:46;40.50;25.70
29007;DHT22;16104;48.642;9.008;2022-08-03T13:32:42;40.70;24.80
29007;DHT22;16104;48.642;9.008;2022-08-03T13:37:37;40.70;24.60
29007;DHT22;16104;48.642;9.008;2022-08-03T13:42:34;40.70;24.40
29007;DHT22;16104;48.642;9.008;2022-08-03T13:47:29;40.80;24.50
29007;DHT22;16104;48.642;9.008;2022-08-03T13:52:25;40.80;25.10
29007;DHT22;16104;48.642;9.008;2022-08-03T13:57:20;40.90;24.90
29007;DHT22;16104;48.642;9.008;2022-08-03T14:02:16;41.00;25.10
29007;DHT22;16104;48.642;9.008;2022-08-03T14:07:11;41.20;25.30
29007;DHT22;16104;48.642;9.008;2022-08-03T14:12:08;41.30;24.50
29007;DHT22;16104;48.642;9.008;2022-08-03T14:17:04;41.50;26.20
29007;DHT22;16104;48.642;9.008;2022-08-03T14:22:00;41.60;24.80
29007;DHT22;16104;48.642;9.008;2022-08-03T14:26:55;41.70;24.70
29007;DHT22;16104;48.642;9.008;2022-08-03T14:31:51;41.80;24.40
29007;DHT22;16104;48.642;9.008;2022-08-03T14:36:46;41.90;23.90
29007;DHT22;16104;48.642;9.008;2022-08-03T14:41:42;42.00;24.10
29007;DHT22;16104;48.642;9.008;2022-08-03T14:46:37;42.00;23.90
29007;DHT22;16104;48.642;9.008;2022-08-03T14:51:32;41.90;23.60
29007;DHT22;16104;48.642;9.008;2022-08-03T14:56:28;41.90;24.70
29007;DHT22;16104;48.642;9.008;2022-08-03T15:01:23;41.90;24.30
29007;DHT22;16104;48.642;9.008;2022-08-03T15:06:19;42.00;24.00
29007;DHT22;16104;48.642;9.008;2022-08-03T15:11:15;42.00;24.20
29007;DHT22;16104;48.642;9.008;2022-08-03T15:16:10;42.00;24.00
29007;DHT22;16104;48.642;9.008;2022-08-03T15:21:06;41.90;24.00
29007;DHT22;16104;48.642;9.008;2022-08-03T15:26:01;41.90;23.90
29007;DHT22;16104;48.642;9.008;2022-08-03T15:30:57;41.90;24.20
29007;DHT22;16104;48.642;9.008;2022-08-03T15:35:53;41.90;24.20
29007;DHT22;16104;48.642;9.008;2022-08-03T15:40:48;41.80;24.00
29007;DHT22;16104;48.642;9.008;2022-08-03T15:45:44;41.80;23.80
29007;DHT22;16104;48.642;9.008;2022-08-03T15:50:40;41.70;23.70
29007;DHT22;16104;48.642;9.008;2022-08-03T15:55:35;41.70;23.80
29007;DHT22;16104;48.642;9.008;2022-08-03T16:00:31;41.60;23.90
29007;DHT22;16104;48.642;9.008;2022-08-03T16:06:04;41.60;23.90
29007;DHT22;16104;48.642;9.008;2022-08-03T16:11:04;41.60;23.70
29007;DHT22;16104;48.642;9.008;2022-08-03T16:15:59;41.50;23.80
29007;DHT22;16104;48.642;9.008;2022-08-03T16:21:04;41.40;23.70
29007;DHT22;16104;48.642;9.008;2022-08-03T16:26:21;41.30;23.70
29007;DHT22;16104;48.642;9.008;2022-08-03T16:31:45;41.20;23.60
29007;DHT22;16104;48.642;9.008;2022-08-03T16:42:36;41.10;23.90
29007;DHT22;16104;48.642;9.008;2022-08-03T16:47:32;41.00;23.70
29007;DHT22;16104;48.642;9.008;2022-08-03T16:52:48;40.90;24.00
29007;DHT22;16104;48.642;9.008;2022-08-03T16:57:53;40.70;24.10
29007;DHT22;16104;48.642;9.008;2022-08-03T17:03:01;40.70;24.30
29007;DHT22;16104;48.642;9.008;2022-08-03T17:08:04;40.60;24.10
29007;DHT22;16104;48.642;9.008;2022-08-03T17:13:43;40.40;24.10
29007;DHT22;16104;48.642;9.008;2022-08-03T17:24:38;40.10;24.50
29007;DHT22;16104;48.642;9.008;2022-08-03T17:29:38;40.00;24.40
29007;DHT22;16104;48.642;9.008;2022-08-03T17:34:35;39.80;24.00
29007;DHT22;16104;48.642;9.008;2022-08-03T17:39:31;39.70;24.40
29007;DHT22;16104;48.642;9.008;2022-08-03T17:44:28;39.50;24.60
29007;DHT22;16104;48.642;9.008;2022-08-03T17:49:25;39.30;25.00
29007;DHT22;16104;48.642;9.008;2022-08-03T17:54:32;39.20;25.00
29007;DHT22;16104;48.642;9.008;2022-08-03T17:59:55;38.90;25.00
29007;DHT22;16104;48.642;9.008;2022-08-03T18:05:02;38.70;25.40
29007;DHT22;16104;48.642;9.008;2022-08-03T18:09:59;38.50;25.40
29007;DHT22;16104;48.642;9.008;2022-08-03T18:14:58;38.30;25.50
29007;DHT22;16104;48.642;9.008;2022-08-03T18:19:55;38.10;25.80
29007;DHT22;16104;48.642;9.008;2022-08-03T18:24:51;37.90;26.00
29007;DHT22;16104;48.642;9.008;2022-08-03T18:29:48;37.60;26.10
29007;DHT22;16104;48.642;9.008;2022-08-03T18:34:44;37.40;26.10
29007;DHT22;16104;48.642;9.008;2022-08-03T18:39:41;37.00;26.20
29007;DHT22;16104;48.642;9.008;2022-08-03T18:44:38;36.70;26.60
29007;DHT22;16104;48.642;9.008;2022-08-03T18:55:08;36.00;27.30
29007;DHT22;16104;48.642;9.008;2022-08-03T19:00:08;35.60;27.50
29007;DHT22;16104;48.642;9.008;2022-08-03T19:05:09;35.30;28.00
29007;DHT22;16104;48.642;9.008;2022-08-03T19:10:08;34.90;28.10
29007;DHT22;16104;48.642;9.008;2022-08-03T19:15:12;34.70;28.40
29007;DHT22;16104;48.642;9.008;2022-08-03T19:20:08;34.40;28.60
29007;DHT22;16104;48.642;9.008;2022-08-03T19:25:06;34.10;28.80
29007;DHT22;16104;48.642;9.008;2022-08-03T19:30:05;33.80;29.00
29007;DHT22;16104;48.642;9.008;2022-08-03T19:35:03;33.60;29.40
29007;DHT22;16104;48.642;9.008;2022-08-03T19:39:58;33.30;29.70
29007;DHT22;16104;48.642;9.008;2022-08-03T19:45:07;33.10;29.80
29007;DHT22;16104;48.642;9.008;2022-08-03T19:50:06;32.80;30.30
29007;DHT22;16104;48.642;9.008;2022-08-03T19:55:08;32.70;30.00
29007;DHT22;16104;48.642;9.008;2022-08-03T20:00:07;32.50;30.90
29007;DHT22;16104;48.642;9.008;2022-08-03T20:05:04;32.20;31.20
29007;DHT22;16104;48.642;9.008;2022-08-03T20:10:02;32.00;31.50
29007;DHT22;16104;48.642;9.008;2022-08-03T20:14:58;31.80;32.00
29007;DHT22;16104;48.642;9.008;2022-08-03T20:19:54;31.60;31.90
29007;DHT22;16104;48.642;9.008;2022-08-03T20:24:53;31.40;32.20
29007;DHT22;16104;48.642;9.008;2022-08-03T20:29:50;31.20;32.60
29007;DHT22;16104;48.642;9.008;2022-08-03T20:34:45;31.00;32.80
29007;DHT22;16104;48.642;9.008;2022-08-03T20:39:41;30.90;33.20
29007;DHT22;16104;48.642;9.008;2022-08-03T20:44:36;30.70;32.90
29007;DHT22;16104;48.642;9.008;2022-08-03T20:49:33;30.60;33.10
29007;DHT22;16104;48.642;9.008;2022-08-03T20:54:29;30.40;33.60
29007;DHT22;16104;48.642;9.008;2022-08-03T20:59:25;30.30;33.90
29007;DHT22;16104;48.642;9.008;2022-08-03T21:04:25;30.10;34.10
29007;DHT22;16104;48.642;9.008;2022-08-03T21:09:25;30.00;34.40
29007;DHT22;16104;48.642;9.008;2022-08-03T21:14:54;29.90;34.90
29007;DHT22;16104;48.642;9.008;2022-08-03T21:19:52;29.70;35.30
29007;DHT22;16104;48.642;9.008;2022-08-03T21:24:51;29.50;35.00
29007;DHT22;16104;48.642;9.008;2022-08-03T21:29:49;29.40;35.60
29007;DHT22;16104;48.642;9.008;2022-08-03T21:34:45;29.30;35.70
29007;DHT22;16104;48.642;9.008;2022-08-03T21:39:42;29.10;36.10
29007;DHT22;16104;48.642;9.008;2022-08-03T21:44:40;29.00;36.40
29007;DHT22;16104;48.642;9.008;2022-08-03T21:49:36;28.80;36.60
29007;DHT22;16104;48.642;9.008;2022-08-03T21:54:37;28.70;36.80
29007;DHT22;16104;48.642;9.008;2022-08-03T21:59:35;28.70;37.60
29007;DHT22;16104;48.642;9.008;2022-08-03T22:04:33;28.50;37.60
29007;DHT22;16104;48.642;9.008;2022-08-03T22:09:29;28.40;37.70
29007;DHT22;16104;48.642;9.008;2022-08-03T22:14:25;28.30;37.30
29007;DHT22;16104;48.642;9.008;2022-08-03T22:19:21;28.20;37.40
29007;DHT22;16104;48.642;9.008;2022-08-03T22:24:18;28.10;37.50
29007;DHT22;16104;48.642;9.008;2022-08-03T22:29:14;28.00;37.50
29007;DHT22;16104;48.642;9.008;2022-08-03T22:34:10;27.90;37.20
29007;DHT22;16104;48.642;9.008;2022-08-03T22:39:06;27.90;37.10
29007;DHT22;16104;48.642;9.008;2022-08-03T22:44:01;27.80;37.20
29007;DHT22;16104;48.642;9.008;2022-08-03T22:48:57;27.70;37.20
29007;DHT22;16104;48.642;9.008;2022-08-03T22:53:54;27.60;37.40
29007;DHT22;16104;48.642;9.008;2022-08-03T22:58:50;27.50;37.40
29007;DHT22;16104;48.642;9.008;2022-08-03T23:03:51;27.50;37.50
29007;DHT22;16104;48.642;9.008;2022-08-03T23:08:48;27.50;38.60
29007;DHT22;16104;48.642;9.008;2022-08-03T23:13:46;27.30;38.10
29007;DHT22;16104;48.642;9.008;2022-08-03T23:18:46;27.30;38.40
29007;DHT22;16104;48.642;9.008;2022-08-03T23:23:43;27.20;38.40
29007;DHT22;16104;48.642;9.008;2022-08-03T23:28:39;27.10;38.20
29007;DHT22;16104;48.642;9.008;2022-08-03T23:33:37;27.10;38.20
29007;DHT22;16104;48.642;9.008;2022-08-03T23:38:35;27.00;38.70
29007;DHT22;16104;48.642;9.008;2022-08-03T23:43:35;26.80;39.00
29007;DHT22;16104;48.642;9.008;2022-08-03T23:48:33;26.80;38.90
29007;DHT22;16104;48.642;9.008;2022-08-03T23:58:46;26.60;39.90
